Flight Track Log - Related Links

Times and Time Zones

All times are in EDT time to prevent confusion due to time zone crossing. See the DAL95 flight status page for this flight to view local times or setup timezone preferences in your user account.

Time Position Orientation Groundspeed Altitude Reporting Facility
EDT Latitude Longitude Course Direction KTS MPH feet Rate Location/Type
Wed 04:30:37 AM 41.2770 2.0620 242° Southwest 158 182 600  Level FlightAware ADS-B
Wed 04:30:52 AM 41.2710 2.0520 231° Southwest 158 182 1,100 2,000 Climbing FlightAware ADS-B
Wed 04:31:07 AM 41.2600 2.0480 195° South 163 188 1,600 1,800 Climbing FlightAware ADS-B
Wed 04:31:32 AM 41.2410 2.0520 171° South 159 183 2,300 1,636 Climbing FlightAware ADS-B
Wed 04:32:02 AM 41.2210 2.0390 206° Southwest 165 190 3,100 1,200 Climbing FlightAware ADS-B
Wed 04:32:27 AM 41.2030 2.0250 210° Southwest 197 227 3,400 873 Climbing FlightAware ADS-B
Wed 04:32:57 AM 41.1800 1.9990 220° Southwest 244 281 3,900 900 Climbing FlightAware ADS-B
Wed 04:33:07 AM 41.1780 1.9850 259° West 262 302 4,000 2,100 Climbing FlightAware ADS-B
Wed 04:33:37 AM 41.1870 1.9340 283° West 276 318 5,300 2,600 Climbing FlightAware ADS-B
Wed 04:34:07 AM 41.2090 1.8950 307° West 279 321 6,600 3,000 Climbing FlightAware ADS-B
Wed 04:34:37 AM 41.2310 1.8510 304° West 271 312 8,300 2,836 Climbing FlightAware ADS-B
Wed 04:35:02 AM 41.2420 1.8100 290° West 281 323 9,200 1,886 Climbing FlightAware ADS-B
Wed 04:35:47 AM 41.2610 1.7370 289° West 306 352 10,500 1,425 Climbing FlightAware ADS-B
Wed 04:36:22 AM 41.2800 1.6690 290° West 342 394 11,100 1,765 Climbing FlightAware ADS-B
Wed 04:37:12 AM 41.3080 1.5660 290° West 354 407 13,000 2,333 Climbing FlightAware ADS-B
Wed 04:37:52 AM 41.3310 1.4820 290° West 359 413 14,600 2,047 Climbing FlightAware ADS-B
Wed 04:38:37 AM 41.3560 1.3890 290° West 370 426 15,900 1,835 Climbing FlightAware ADS-B
Wed 04:39:17 AM 41.3790 1.3030 290° West 377 434 17,200 1,906 Climbing FlightAware ADS-B
Wed 04:40:02 AM 41.4060 1.2010 289° West 383 441 18,600 1,835 Climbing FlightAware ADS-B
Wed 04:40:42 AM 41.4300 1.1120 290° West 388 447 19,800 1,725 Climbing FlightAware ADS-B
Wed 04:41:22 AM 41.4540 1.0230 290° West 393 452 20,900 1,553 Climbing FlightAware ADS-B
Wed 04:42:07 AM 41.4810 0.9210 289° West 399 459 22,000 1,412 Climbing FlightAware ADS-B
Wed 04:42:47 AM 41.5060 0.8260 289° West 407 468 22,900 1,412 Climbing FlightAware ADS-B
Wed 04:43:32 AM 41.5360 0.7170 290° West 413 475 24,000 1,341 Climbing FlightAware ADS-B
Wed 04:44:12 AM 41.5700 0.6260 297° West 418 481 24,800 1,200 Climbing FlightAware ADS-B
Wed 04:44:52 AM 41.6150 0.5410 305° West 424 488 25,600 1,129 Climbing FlightAware ADS-B
Wed 04:45:37 AM 41.6700 0.4510 309° West 430 495 26,400 1,059 Climbing FlightAware ADS-B
Wed 04:46:17 AM 41.7190 0.3640 307° West 436 502 27,100 1,050 Climbing FlightAware ADS-B
Wed 04:46:57 AM 41.7560 0.2690 298° West 442 509 27,800 1,200 Climbing FlightAware ADS-B
Wed 04:47:42 AM 41.7880 0.1480 290° West 442 509 28,800 1,200 Climbing FlightAware ADS-B
Wed 04:48:22 AM 41.8130 0.0440 288° West 444 511 29,500 1,412 Climbing FlightAware ADS-B
Wed 04:49:07 AM 41.8380 -0.0650 287° West 431 496 30,800 1,341 Climbing FlightAware ADS-B
Wed 04:49:47 AM 41.8620 -0.1660 288° West 432 497 31,400 600 Climbing FlightAware ADS-B
Wed 04:50:27 AM 41.8870 -0.2730 287° West 442 509 31,600 353 Climbing FlightAware ADS-B
Wed 04:51:12 AM 41.9150 -0.3950 287° West 451 519 31,900 635 Climbing FlightAware ADS-B
Wed 04:51:52 AM 41.9400 -0.5050 287° West 452 520 32,500 776 Climbing FlightAware ADS-B
Wed 04:52:37 AM 41.9660 -0.6200 287° West 453 521 33,000 353 Climbing FlightAware ADS-B
Wed 04:53:17 AM 41.9910 -0.7290 287° West 453 521 33,000  Level FlightAware ADS-B
Wed 04:53:57 AM 42.0160 -0.8390 287° West 453 521 33,000  Level FlightAware ADS-B
Wed 04:54:42 AM 42.0430 -0.9600 287° West 454 522 33,000  Level FlightAware ADS-B
Wed 04:55:22 AM 42.0670 -1.0700 286° West 452 520 33,000  Level FlightAware ADS-B
Wed 04:56:02 AM 42.0900 -1.1740 287° West 451 519 33,000  Level FlightAware ADS-B
Wed 04:56:47 AM 42.1170 -1.2950 287° West 452 520 33,000  Level FlightAware ADS-B
Wed 04:57:27 AM 42.1410 -1.4040 287° West 451 519 33,000  Level FlightAware ADS-B
Wed 04:58:12 AM 42.1680 -1.5290 286° West 450 518 33,000  Level FlightAware ADS-B
Wed 04:58:52 AM 42.1920 -1.6370 287° West 451 519 33,000  Level FlightAware ADS-B
Wed 04:59:37 AM 42.2170 -1.7540 286° West 451 519 33,000  Level FlightAware ADS-B
Wed 05:00:17 AM 42.2400 -1.8610 286° West 450 518 33,000  Level FlightAware ADS-B
Wed 05:01:02 AM 42.2670 -1.9850 286° West 450 518 33,000  Level FlightAware ADS-B
Wed 05:01:42 AM 42.2900 -2.0940 286° West 450 518 33,000  Level FlightAware ADS-B
Wed 05:02:22 AM 42.3120 -2.2000 286° West 450 518 33,000  Level FlightAware ADS-B
Wed 05:03:07 AM 42.3370 -2.3160 286° West 448 516 33,000  Level FlightAware ADS-B
Wed 05:03:47 AM 42.3580 -2.4200 285° West 449 517 33,000  Level FlightAware ADS-B
Wed 05:04:32 AM 42.3830 -2.5390 286° West 450 518 33,000  Level FlightAware ADS-B
Wed 05:05:12 AM 42.4060 -2.6510 286° West 452 520 33,000  Level FlightAware ADS-B
Wed 05:05:57 AM 42.4320 -2.7780 286° West 449 517 33,000  Level FlightAware ADS-B
Wed 05:06:37 AM 42.4540 -2.8880 285° West 449 517 33,000  Level FlightAware ADS-B
Wed 05:07:17 AM 42.4660 -2.9940 279° West 448 516 33,000  Level FlightAware ADS-B
Wed 05:08:02 AM 42.4800 -3.1230 278° West 449 517 33,000 424 Level FlightAware ADS-B
Wed 05:08:42 AM 42.4920 -3.2350 278° West 448 516 33,600 975 Climbing FlightAware ADS-B
Wed 05:09:22 AM 42.5040 -3.3480 278° West 445 512 34,300 988 Climbing FlightAware ADS-B
Wed 05:10:07 AM 42.5180 -3.4770 278° West 444 511 35,000 847 Climbing FlightAware ADS-B
Wed 05:10:47 AM 42.5290 -3.5840 278° West 443 510 35,500 675 Climbing FlightAware ADS-B
Wed 05:11:27 AM 42.5400 -3.6900 278° West 442 509 35,900 776 Climbing FlightAware ADS-B
Wed 05:12:12 AM 42.5530 -3.8180 278° West 439 505 36,600 733 Climbing FlightAware ADS-B
Wed 05:12:57 AM 42.5650 -3.9370 278° West 437 503 37,000 282 Climbing FlightAware ADS-B
Wed 05:13:37 AM 42.5760 -4.0450 278° West 437 503 37,000  Level FlightAware ADS-B
Wed 05:14:17 AM 42.5870 -4.1530 278° West 437 503 37,000  Level FlightAware ADS-B
Wed 05:15:02 AM 42.5990 -4.2750 278° West 437 503 37,000  Level FlightAware ADS-B
Wed 05:15:42 AM 42.6090 -4.3810 277° West 439 505 37,000  Level FlightAware ADS-B
Wed 05:16:27 AM 42.6210 -4.5070 277° West 439 505 37,000  Level FlightAware ADS-B
Wed 05:17:07 AM 42.6320 -4.6180 278° West 440 506 37,000  Level FlightAware ADS-B
Wed 05:17:47 AM 42.6420 -4.7280 277° West 441 507 37,000  Level FlightAware ADS-B
Wed 05:18:32 AM 42.6530 -4.8490 277° West 442 509 37,000  Level FlightAware ADS-B
Wed 05:19:12 AM 42.6640 -4.9620 278° West 442 509 37,000  Level FlightAware ADS-B
Wed 05:19:57 AM 42.6750 -5.0860 277° West 441 507 37,000  Level FlightAware ADS-B
Wed 05:20:37 AM 42.6850 -5.1940 277° West 441 507 37,000  Level FlightAware ADS-B
Wed 05:21:17 AM 42.6950 -5.3050 277° West 440 506 37,000  Level FlightAware ADS-B
Wed 05:22:02 AM 42.7050 -5.4260 276° West 440 506 37,000  Level FlightAware ADS-B
Wed 05:22:42 AM 42.7150 -5.5330 277° West 441 507 37,000  Level FlightAware ADS-B
Wed 05:23:27 AM 42.7260 -5.6610 277° West 441 507 37,000  Level FlightAware ADS-B
Wed 05:24:07 AM 42.7350 -5.7690 277° West 441 507 37,000 375 Level FlightAware ADS-B
Wed 05:24:47 AM 42.7440 -5.8780 276° West 440 506 37,500 706 Climbing FlightAware ADS-B
Wed 05:25:32 AM 42.7540 -6.0030 276° West 436 502 38,000 353 Climbing FlightAware ADS-B
Wed 05:26:12 AM 42.7630 -6.1100 277° West 436 502 38,000  Level FlightAware ADS-B
Wed 05:26:52 AM 42.7720 -6.2180 277° West 436 502 38,000  Level FlightAware ADS-B
Wed 05:27:37 AM 42.7810 -6.3390 276° West 435 501 38,000  Level FlightAware ADS-B
Wed 05:28:17 AM 42.7900 -6.4470 277° West 437 503 38,000  Level FlightAware ADS-B
Wed 05:28:57 AM 42.7970 -6.5470 275° West 438 504 38,000  Level FlightAware ADS-B
Wed 05:29:57 AM 42.8100 -6.7110 276° West 438 504 38,000  Level FlightAware ADS-B
Wed 05:30:37 AM 42.8180 -6.8200 276° West 437 503 38,000  Level FlightAware ADS-B
Wed 05:31:32 AM 42.8270 -6.9370 276° West 438 504 38,000  Level FlightAware ADS-B
Wed 05:32:12 AM 42.8350 -7.0490 276° West 438 504 38,000  Level FlightAware ADS-B
Wed 05:32:57 AM 42.8450 -7.1820 276° West 437 503 38,000  Level FlightAware ADS-B
Wed 05:33:42 AM 42.8540 -7.3100 276° West 437 503 38,000  Level FlightAware ADS-B
Wed 05:34:12 AM 42.8590 -7.3900 275° West 436 502 38,000  Level FlightAware ADS-B
Wed 05:35:02 AM 42.8690 -7.5290 276° West 437 503 38,000  Level FlightAware ADS-B
Wed 05:35:47 AM 42.8770 -7.6430 276° West 438 504 38,000  Level FlightAware ADS-B
Wed 05:36:27 AM 42.8850 -7.7590 275° West 438 504 38,000  Level FlightAware ADS-B
Wed 05:37:12 AM 42.8920 -7.8730 275° West 437 503 38,000  Level FlightAware ADS-B
Wed 05:37:52 AM 42.9000 -7.9940 275° West 436 502 38,000  Level FlightAware ADS-B
Wed 05:38:32 AM 42.9070 -8.1030 275° West 436 502 38,000  Level FlightAware ADS-B
Wed 05:39:17 AM 42.9140 -8.2160 275° West 435 501 38,000  Level FlightAware ADS-B
Wed 05:39:57 AM 42.9210 -8.3280 275° West 435 501 38,000  Level FlightAware ADS-B
Wed 05:40:37 AM 42.9280 -8.4280 275° West 435 501 38,000  Level FlightAware ADS-B
Wed 05:41:22 AM 42.9460 -8.5530 281° West 437 503 38,000  Level FlightAware ADS-B
Wed 05:41:57 AM 42.9590 -8.6480 281° West 436 502 38,000  Level FlightAware ADS-B
Wed 05:42:47 AM 42.9790 -8.7840 281° West 434 499 38,000  Level FlightAware ADS-B
Wed 05:43:22 AM 42.9930 -8.8800 281° West 432 497 38,000  Level FlightAware ADS-B
Wed 05:44:07 AM 43.0100 -9.0000 281° West 431 496 38,000  Level FlightAware ADS-B
Wed 05:44:47 AM 43.0250 -9.1100 281° West 430 495 38,000  Level FlightAware ADS-B
Wed 05:45:32 AM 43.0410 -9.2240 281° West 429 494 38,000  Level FlightAware ADS-B
Wed 05:46:12 AM 43.0550 -9.3210 281° West 430 495 38,000  Level FlightAware ADS-B
Wed 05:47:42 AM 43.0940 -9.6100 281° West 434 499 38,000  Level FlightAware ADS-B
Wed 05:48:22 AM 43.1090 -9.7200 281° West 432 497 38,000  Level FlightAware ADS-B
Wed 05:49:02 AM 43.1240 -9.8300 281° West 430 495 38,000  Level FlightAware ADS-B
Wed 05:49:47 AM 43.1380 -9.9360 280° West 429 494 38,000  Level FlightAware ADS-B
Wed 05:50:22 AM 43.1500 -10.0300 280° West 429 494 38,000  Level FlightAware ADS-B
Wed 05:51:12 AM 43.1700 -10.1780 281° West 428 493 38,000  Level FlightAware ADS-B
Wed 05:51:52 AM 43.1820 -10.2750 280° West 428 493 38,000  Level FlightAware ADS-B
Wed 05:52:32 AM 43.1960 -10.3810 280° West 429 494 38,000  Level FlightAware ADS-B
Wed 05:53:12 AM 43.2090 -10.4870 280° West 431 496 38,000  Level FlightAware ADS-B
Wed 05:53:47 AM 43.2220 -10.5890 280° West 432 497 38,000  Level FlightAware ADS-B
Wed 05:54:37 AM 43.2380 -10.7120 280° West 430 495 38,000  Level FlightAware ADS-B
Wed 05:55:22 AM 43.2540 -10.8430 280° West 426 490 38,000  Level FlightAware ADS-B
Wed 05:56:02 AM 43.2640 -10.9220 280° West 426 490 38,000  Level FlightAware ADS-B
Wed 05:56:47 AM 43.2780 -11.0370 280° West 424 488 38,000  Level FlightAware ADS-B
Wed 05:57:27 AM 43.2910 -11.1460 279° West 425 489 38,000  Level FlightAware ADS-B
Wed 05:58:02 AM 43.3030 -11.2420 280° West 424 488 38,000  Level FlightAware ADS-B
Wed 05:58:52 AM 43.3180 -11.3700 279° West 422 486 38,000  Level FlightAware ADS-B
Wed 05:59:37 AM 43.3320 -11.4850 280° West 421 484 38,000  Level FlightAware ADS-B
Wed 06:00:27 AM 43.3490 -11.6280 279° West 420 483 38,000  Level FlightAware ADS-B
Wed 06:01:12 AM 43.3610 -11.7360 279° West 419 482 38,000  Level FlightAware ADS-B
Wed 06:01:52 AM 43.3740 -11.8430 280° West 419 482 38,000  Level FlightAware ADS-B
Wed 06:02:37 AM 43.3860 -11.9600 278° West 420 483 38,000  Level FlightAware ADS-B
Wed 06:03:12 AM 43.3970 -12.0510 279° West 420 483 38,000  Level FlightAware ADS-B
Wed 06:04:02 AM 43.4110 -12.1780 279° West 421 484 38,000  Level FlightAware ADS-B
Wed 06:04:37 AM 43.4200 -12.2660 278° West 421 484 38,000  Level FlightAware ADS-B
Wed 06:05:17 AM 43.4300 -12.3570 279° West 421 484 38,000  Level FlightAware ADS-B
Wed 06:06:07 AM 43.4410 -12.4700 278° West 421 484 38,000  Level FlightAware ADS-B
Wed 06:06:47 AM 43.4500 -12.5600 278° West 421 484 38,000  Level FlightAware ADS-B
Wed 06:07:27 AM 43.4590 -12.6500 278° West 421 484 38,000  Level FlightAware ADS-B
Wed 06:08:07 AM 43.4690 -12.7410 279° West 421 484 38,000  Level FlightAware ADS-B
Wed 06:08:57 AM 43.4800 -12.8540 278° West 421 484 38,000  Level FlightAware ADS-B
Wed 06:09:37 AM 43.4890 -12.9440 278° West 421 484 38,000  Level FlightAware ADS-B
Wed 06:10:17 AM 43.4990 -13.0340 279° West 421 484 38,000  Level FlightAware ADS-B
Wed 06:10:57 AM 43.5080 -13.1250 278° West 421 484 38,000  Level FlightAware ADS-B
Wed 06:11:37 AM 43.5170 -13.2150 278° West 421 484 38,000  Level FlightAware ADS-B
Wed 06:12:27 AM 43.5290 -13.3280 278° West 421 484 38,000  Level FlightAware ADS-B
Wed 06:13:07 AM 43.5380 -13.4190 278° West 421 484 38,000  Level FlightAware ADS-B
Wed 06:13:47 AM 43.5470 -13.5090 278° West 421 484 38,000  Level FlightAware ADS-B
Wed 06:16:00 AM 43.6232 -13.8368 288° West  Level Estimated
Wed 06:17:00 AM 43.6572 -13.9850 288° West  Level Estimated
Wed 06:18:00 AM 43.6911 -14.1333 288° West  Level Estimated
Wed 06:19:00 AM 43.7248 -14.2818 287° West  Level Estimated
Wed 06:20:00 AM 43.7582 -14.4304 287° West  Level Estimated
Wed 06:21:00 AM 43.7915 -14.5792 287° West  Level Estimated
Wed 06:22:00 AM 43.8246 -14.7282 287° West  Level Estimated
Wed 06:23:00 AM 43.8575 -14.8774 287° West  Level Estimated
Wed 06:24:00 AM 43.8902 -15.0267 287° West  Level Estimated
Wed 06:25:00 AM 43.9227 -15.1762 287° West  Level Estimated
Wed 06:26:00 AM 43.9550 -15.3258 287° West  Level Estimated
Wed 06:27:00 AM 43.9871 -15.4756 287° West  Level Estimated
Wed 06:28:00 AM 44.0191 -15.6256 287° West  Level Estimated
Wed 06:29:00 AM 44.0508 -15.7757 286° West  Level Estimated
Wed 06:30:00 AM 44.0823 -15.9260 286° West  Level Estimated
Wed 06:31:00 AM 44.1137 -16.0764 286° West  Level Estimated
Wed 06:32:00 AM 44.1448 -16.2270 286° West  Level Estimated
Wed 06:33:00 AM 44.1757 -16.3778 286° West  Level Estimated
Wed 06:34:00 AM 44.2065 -16.5287 286° West  Level Estimated
Wed 06:35:00 AM 44.2370 -16.6798 286° West  Level Estimated
Wed 06:36:00 AM 44.2674 -16.8310 286° West  Level Estimated
Wed 06:37:00 AM 44.2975 -16.9824 286° West  Level Estimated
Wed 06:38:00 AM 44.3274 -17.1339 285° West  Level Estimated
Wed 06:39:00 AM 44.3572 -17.2856 285° West  Level Estimated
Wed 06:40:00 AM 44.3867 -17.4375 285° West  Level Estimated
Wed 06:41:00 AM 44.4161 -17.5895 285° West  Level Estimated
Wed 06:42:00 AM 44.4452 -17.7416 285° West  Level Estimated
Wed 06:43:00 AM 44.4741 -17.8939 285° West  Level Estimated
Wed 06:44:00 AM 44.5029 -18.0464 285° West  Level Estimated
Wed 06:45:00 AM 44.5314 -18.1990 285° West  Level Estimated
Wed 06:46:00 AM 44.5597 -18.3518 285° West  Level Estimated
Wed 06:47:00 AM 44.5878 -18.5047 285° West  Level Estimated
Wed 06:48:00 AM 44.6157 -18.6577 284° West  Level Estimated
Wed 06:49:00 AM 44.6435 -18.8109 284° West  Level Estimated
Wed 06:50:00 AM 44.6710 -18.9643 284° West  Level Estimated
Wed 06:51:00 AM 44.6983 -19.1178 284° West  Level Estimated
Wed 06:52:00 AM 44.7254 -19.2714 284° West  Level Estimated
Wed 06:53:00 AM 44.7523 -19.4252 284° West  Level Estimated
Wed 06:54:00 AM 44.7789 -19.5791 284° West  Level Estimated
Wed 06:55:00 AM 44.8054 -19.7332 284° West  Level Estimated
Wed 06:56:00 AM 44.8317 -19.8874 284° West  Level Estimated
Wed 06:57:00 AM 44.8577 -20.0417 283° West  Level Estimated
Wed 06:58:00 AM 44.8836 -20.1962 283° West  Level Estimated
Wed 06:59:00 AM 44.9092 -20.3508 283° West  Level Estimated
Wed 06:59:18 AM 46.0000 -20.0000 282° West 424 488 38,000  Level ETMS Enhanced Traffic Management System
Wed 07:00:00 AM 44.9347 -20.5056 283° West  Level Estimated
Wed 07:01:00 AM 44.9599 -20.6602 283° West  Level Estimated
Wed 07:02:00 AM 44.9848 -20.8149 283° West  Level Estimated
Wed 07:03:00 AM 45.0096 -20.9697 283° West  Level Estimated
Wed 07:04:00 AM 45.0341 -21.1247 283° West  Level Estimated
Wed 07:05:00 AM 46.1638 -21.1653 281° West 424 488 38,000  Level FlightAware Transoceanic
Wed 07:06:00 AM 46.1862 -21.3323 281° West 424 488 38,000  Level FlightAware Transoceanic
Wed 07:07:00 AM 46.2084 -21.4994 281° West 424 488 38,000  Level FlightAware Transoceanic
Wed 07:08:00 AM 46.2304 -21.6667 281° West 424 488 38,000  Level FlightAware Transoceanic
Wed 07:09:00 AM 46.2521 -21.8342 281° West 424 488 38,000  Level FlightAware Transoceanic
Wed 07:10:00 AM 46.2735 -22.0017 280° West 424 488 38,000  Level FlightAware Transoceanic
Wed 07:11:00 AM 46.2948 -22.1694 280° West 424 488 38,000  Level FlightAware Transoceanic
Wed 07:12:00 AM 46.3157 -22.3372 280° West 424 488 38,000  Level FlightAware Transoceanic
Wed 07:13:00 AM 46.3364 -22.5052 280° West 424 488 38,000  Level FlightAware Transoceanic
Wed 07:14:00 AM 46.3569 -22.6732 280° West 424 488 38,000  Level FlightAware Transoceanic
Wed 07:15:00 AM 46.3771 -22.8414 280° West 424 488 38,000  Level FlightAware Transoceanic
Wed 07:16:00 AM 46.3971 -23.0098 280° West 424 488 38,000  Level FlightAware Transoceanic
Wed 07:17:00 AM 46.4169 -23.1782 280° West 424 488 38,000  Level FlightAware Transoceanic
Wed 07:18:00 AM 46.4363 -23.3468 279° West 424 488 38,000  Level FlightAware Transoceanic
Wed 07:19:00 AM 46.4556 -23.5154 279° West 424 488 38,000  Level FlightAware Transoceanic
Wed 07:20:00 AM 46.4746 -23.6842 279° West 424 488 38,000  Level FlightAware Transoceanic
Wed 07:21:00 AM 46.4933 -23.8532 279° West 424 488 38,000  Level FlightAware Transoceanic
Wed 07:22:00 AM 46.5118 -24.0222 279° West 424 488 38,000  Level FlightAware Transoceanic
Wed 07:23:00 AM 46.5300 -24.1914 279° West 424 488 38,000  Level FlightAware Transoceanic
Wed 07:24:00 AM 46.5480 -24.3606 279° West 424 488 38,000  Level FlightAware Transoceanic
Wed 07:25:00 AM 46.5658 -24.5300 279° West 424 488 38,000  Level FlightAware Transoceanic
Wed 07:26:00 AM 46.5833 -24.6995 278° West 424 488 38,000  Level FlightAware Transoceanic
Wed 07:27:00 AM 46.6005 -24.8691 278° West 424 488 38,000  Level FlightAware Transoceanic
Wed 07:28:00 AM 46.6175 -25.0388 278° West 424 488 38,000  Level FlightAware Transoceanic
Wed 07:29:00 AM 46.6343 -25.2086 278° West 424 488 38,000  Level FlightAware Transoceanic
Wed 07:30:00 AM 46.6507 -25.3785 278° West 424 488 38,000  Level FlightAware Transoceanic
Wed 07:31:00 AM 46.6670 -25.5485 278° West 424 488 38,000  Level FlightAware Transoceanic
Wed 07:32:00 AM 46.6830 -25.7186 278° West 424 488 38,000  Level FlightAware Transoceanic
Wed 07:33:00 AM 46.6987 -25.8888 278° West 424 488 38,000  Level FlightAware Transoceanic
Wed 07:34:00 AM 46.7142 -26.0591 277° West 424 488 38,000  Level FlightAware Transoceanic
Wed 07:35:00 AM 46.7294 -26.2295 277° West 424 488 38,000  Level FlightAware Transoceanic
Wed 07:36:00 AM 46.7444 -26.4000 277° West 424 488 38,000  Level FlightAware Transoceanic
Wed 07:37:00 AM 46.7591 -26.5707 277° West 424 488 38,000  Level FlightAware Transoceanic
Wed 07:38:00 AM 46.7736 -26.7413 277° West 424 488 38,000  Level FlightAware Transoceanic
Wed 07:39:00 AM 46.7878 -26.9121 277° West 424 488 38,000  Level FlightAware Transoceanic
Wed 07:40:00 AM 46.8018 -27.0830 277° West 424 488 38,000  Level FlightAware Transoceanic
Wed 07:41:00 AM 46.8155 -27.2540 277° West 424 488 38,000  Level FlightAware Transoceanic
Wed 07:42:00 AM 46.8289 -27.4250 276° West 424 488 38,000  Level FlightAware Transoceanic
Wed 07:43:00 AM 46.8421 -27.5961 276° West 424 488 38,000  Level FlightAware Transoceanic
Wed 07:44:00 AM 46.8551 -27.7673 276° West 424 488 38,000  Level FlightAware Transoceanic
Wed 07:45:00 AM 46.8678 -27.9386 276° West 424 488 38,000  Level FlightAware Transoceanic
Wed 07:46:00 AM 46.8802 -28.1100 276° West 424 488 38,000  Level FlightAware Transoceanic
Wed 07:47:00 AM 46.8924 -28.2815 276° West 424 488 38,000  Level FlightAware Transoceanic
Wed 07:48:00 AM 46.9043 -28.4530 276° West 424 488 38,000  Level FlightAware Transoceanic
Wed 07:49:00 AM 46.9160 -28.6246 276° West 424 488 38,000  Level FlightAware Transoceanic
Wed 07:50:00 AM 46.9273 -28.7963 275° West 424 488 38,000  Level FlightAware Transoceanic
Wed 07:51:00 AM 46.9385 -28.9681 275° West 424 488 38,000  Level FlightAware Transoceanic
Wed 07:52:00 AM 46.9494 -29.1399 275° West 424 488 38,000  Level FlightAware Transoceanic
Wed 07:53:00 AM 46.9600 -29.3118 275° West 424 488 38,000  Level FlightAware Transoceanic
Wed 07:54:00 AM 46.9704 -29.4837 275° West 424 488 38,000  Level FlightAware Transoceanic
Wed 07:55:00 AM 46.9805 -29.6558 275° West 424 488 38,000  Level FlightAware Transoceanic
Wed 07:56:00 AM 46.9904 -29.8279 275° West 424 488 38,000 18 Level FlightAware Transoceanic
Wed 07:57:00 AM 46.9998 -29.9919 275° West  Level Estimated
Wed 07:58:00 AM 47.0089 -30.1560 275° West  Level Estimated
Wed 07:59:00 AM 47.0179 -30.3201 275° West  Level Estimated
Wed 08:00:00 AM 47.0266 -30.4843 275° West  Level Estimated
Wed 08:01:00 AM 47.0350 -30.6482 274° West  Level Estimated
Wed 08:02:00 AM 47.0432 -30.8122 274° West  Level Estimated
Wed 08:03:00 AM 47.0512 -30.9762 274° West  Level Estimated
Wed 08:04:00 AM 47.0589 -31.1403 274° West  Level Estimated
Wed 08:05:00 AM 47.0664 -31.3044 274° West  Level Estimated
Wed 08:06:00 AM 47.0737 -31.4685 274° West  Level Estimated
Wed 08:07:00 AM 47.0807 -31.6328 274° West  Level Estimated
Wed 08:08:00 AM 47.0876 -31.7970 274° West  Level Estimated
Wed 08:09:00 AM 47.0941 -31.9613 273° West  Level Estimated
Wed 08:10:00 AM 47.1004 -32.1256 273° West  Level Estimated
Wed 08:11:00 AM 47.1065 -32.2900 273° West  Level Estimated
Wed 08:12:00 AM 47.1124 -32.4544 273° West  Level Estimated
Wed 08:13:00 AM 47.1180 -32.6188 273° West  Level Estimated
Wed 08:14:00 AM 47.1234 -32.7833 273° West  Level Estimated
Wed 08:15:00 AM 47.1286 -32.9478 273° West  Level Estimated
Wed 08:16:00 AM 47.1335 -33.1124 273° West  Level Estimated
Wed 08:17:00 AM 47.1382 -33.2769 272° West  Level Estimated
Wed 08:18:00 AM 47.1426 -33.4415 272° West  Level Estimated
Wed 08:19:00 AM 47.1469 -33.6062 272° West  Level Estimated
Wed 08:20:00 AM 47.1508 -33.7708 272° West  Level Estimated
Wed 08:21:00 AM 47.1546 -33.9355 272° West  Level Estimated
Wed 08:22:00 AM 47.1581 -34.1002 272° West  Level Estimated
Wed 08:23:00 AM 47.1613 -34.2649 272° West  Level Estimated
Wed 08:24:00 AM 47.1644 -34.4296 272° West  Level Estimated
Wed 08:25:00 AM 47.1672 -34.5944 271° West  Level Estimated
Wed 08:26:00 AM 47.1697 -34.7591 271° West  Level Estimated
Wed 08:27:00 AM 47.1721 -34.9239 271° West  Level Estimated
Wed 08:28:00 AM 47.1741 -35.0887 271° West  Level Estimated
Wed 08:29:00 AM 47.1760 -35.2535 271° West  Level Estimated
Wed 08:30:00 AM 47.1776 -35.4183 271° West  Level Estimated
Wed 08:31:00 AM 47.1790 -35.5832 271° West  Level Estimated
Wed 08:32:00 AM 47.1801 -35.7480 271° West  Level Estimated
Wed 08:33:00 AM 47.1810 -35.9128 271° West  Level Estimated
Wed 08:34:00 AM 47.1817 -36.0777 270° West  Level Estimated
Wed 08:35:00 AM 47.1821 -36.2425 270° West  Level Estimated
Wed 08:36:00 AM 47.1823 -36.4074 270° West  Level Estimated
Wed 08:37:00 AM 47.1823 -36.5723 270° West  Level Estimated
Wed 08:38:00 AM 47.1820 -36.7371 270° West  Level Estimated
Wed 08:39:00 AM 47.1815 -36.9020 270° West  Level Estimated
Wed 08:40:00 AM 47.1808 -37.0668 270° West  Level Estimated
Wed 08:41:00 AM 47.1798 -37.2317 270° West  Level Estimated
Wed 08:42:00 AM 47.1786 -37.3965 269° West  Level Estimated
Wed 08:43:00 AM 47.1771 -37.5613 269° West  Level Estimated
Wed 08:44:00 AM 47.1754 -37.7262 269° West  Level Estimated
Wed 08:45:00 AM 47.1735 -37.8910 269° West  Level Estimated
Wed 08:46:00 AM 47.1713 -38.0558 269° West  Level Estimated
Wed 08:47:00 AM 47.1689 -38.2205 269° West  Level Estimated
Wed 08:48:00 AM 47.1662 -38.3853 269° West  Level Estimated
Wed 08:49:00 AM 47.1634 -38.5500 269° West  Level Estimated
Wed 08:50:00 AM 47.1603 -38.7148 268° West  Level Estimated
Wed 08:51:00 AM 47.1569 -38.8795 268° West  Level Estimated
Wed 08:52:00 AM 47.1533 -39.0442 268° West  Level Estimated
Wed 08:53:00 AM 47.1495 -39.2088 268° West  Level Estimated
Wed 08:54:00 AM 47.1455 -39.3735 268° West  Level Estimated
Wed 08:55:00 AM 47.1412 -39.5381 268° West  Level Estimated
Wed 08:56:00 AM 47.1366 -39.7027 268° West  Level Estimated
Wed 08:57:00 AM 47.1319 -39.8672 268° West  Level Estimated
Wed 08:58:00 AM 47.1269 -40.0318 268° West  Level Estimated
Wed 08:59:00 AM 47.1216 -40.1963 267° West  Level Estimated
Wed 09:00:00 AM 47.1162 -40.3607 267° West  Level Estimated
Wed 09:01:00 AM 47.1105 -40.5252 267° West  Level Estimated
Wed 09:02:00 AM 47.1045 -40.6895 267° West  Level Estimated
Wed 09:03:00 AM 47.0983 -40.8539 267° West  Level Estimated
Wed 09:04:00 AM 47.0919 -41.0182 267° West  Level Estimated
Wed 09:05:00 AM 47.0853 -41.1825 267° West  Level Estimated
Wed 09:06:00 AM 47.0784 -41.3467 267° West  Level Estimated
Wed 09:07:00 AM 47.0713 -41.5109 266° West  Level Estimated
Wed 09:08:00 AM 47.0639 -41.6751 266° West  Level Estimated
Wed 09:09:00 AM 47.0563 -41.8392 266° West  Level Estimated
Wed 09:10:00 AM 47.0485 -42.0032 266° West  Level Estimated
Wed 09:11:00 AM 47.0405 -42.1672 266° West  Level Estimated
Wed 09:12:00 AM 47.0322 -42.3312 266° West  Level Estimated
Wed 09:13:00 AM 47.0237 -42.4951 266° West  Level Estimated
Wed 09:14:00 AM 47.0149 -42.6589 266° West  Level Estimated
Wed 09:15:00 AM 47.0059 -42.8227 265° West  Level Estimated
Wed 09:16:00 AM 46.9967 -42.9864 265° West  Level Estimated
Wed 09:17:00 AM 46.9872 -43.1501 265° West  Level Estimated
Wed 09:18:00 AM 46.9775 -43.3137 265° West  Level Estimated
Wed 09:19:00 AM 46.9676 -43.4773 265° West  Level Estimated
Wed 09:20:00 AM 46.9575 -43.6408 265° West  Level Estimated
Wed 09:21:00 AM 46.9471 -43.8042 265° West  Level Estimated
Wed 09:22:00 AM 46.9365 -43.9676 265° West  Level Estimated
Wed 09:23:00 AM 46.9256 -44.1309 265° West  Level Estimated
Wed 09:24:00 AM 46.9145 -44.2942 264° West  Level Estimated
Wed 09:25:00 AM 46.9032 -44.4573 264° West  Level Estimated
Wed 09:26:00 AM 46.8917 -44.6204 264° West  Level Estimated
Wed 09:27:00 AM 46.8799 -44.7835 264° West  Level Estimated
Wed 09:28:00 AM 46.8679 -44.9464 264° West  Level Estimated
Wed 09:29:00 AM 46.8556 -45.1093 264° West  Level Estimated
Wed 09:30:00 AM 46.8432 -45.2721 264° West  Level Estimated
Wed 09:31:00 AM 46.8305 -45.4349 264° West  Level Estimated
Wed 09:32:00 AM 46.8175 -45.5975 263° West  Level Estimated
Wed 09:33:00 AM 46.8044 -45.7601 263° West  Level Estimated
Wed 09:34:00 AM 46.7910 -45.9226 263° West  Level Estimated
Wed 09:35:00 AM 46.7774 -46.0850 263° West  Level Estimated
Wed 09:36:00 AM 46.7635 -46.2474 263° West  Level Estimated
Wed 09:37:00 AM 46.7494 -46.4096 263° West  Level Estimated
Wed 09:38:00 AM 46.7351 -46.5718 263° West  Level Estimated
Wed 09:39:00 AM 46.7206 -46.7339 263° West  Level Estimated
Wed 09:40:00 AM 46.7058 -46.8959 262° West  Level Estimated
Wed 09:41:00 AM 46.6908 -47.0578 262° West  Level Estimated
Wed 09:42:00 AM 46.6756 -47.2196 262° West  Level Estimated
Wed 09:43:00 AM 46.6601 -47.3813 262° West  Level Estimated
Wed 09:44:00 AM 46.6444 -47.5429 262° West  Level Estimated
Wed 09:44:10 AM 44.5833 -47.5833 252° West 416 479 40,000  Level New York Oceanic (ODAPS)
Wed 09:45:00 AM 46.6285 -47.7044 262° West  Level Estimated
Wed 09:46:00 AM 46.6124 -47.8659 262° West  Level Estimated
Wed 09:47:00 AM 46.5960 -48.0272 262° West  Level Estimated
Wed 09:48:00 AM 46.5794 -48.1885 262° West  Level Estimated
Wed 09:49:00 AM 46.5626 -48.3496 261° West  Level Estimated
Wed 09:50:00 AM 44.3706 -48.4952 252° West 416 479 40,000  Level FlightAware Transoceanic
Wed 09:51:00 AM 44.3344 -48.6465 251° West 416 479 40,000  Level FlightAware Transoceanic
Wed 09:52:00 AM 44.2980 -48.7977 251° West 416 479 40,000  Level FlightAware Transoceanic
Wed 09:53:00 AM 44.2615 -48.9486 251° West 416 479 40,000  Level FlightAware Transoceanic
Wed 09:54:00 AM 44.2247 -49.0994 251° West 416 479 40,000  Level FlightAware Transoceanic
Wed 09:55:00 AM 44.1878 -49.2500 251° West 416 479 40,000  Level FlightAware Transoceanic
Wed 09:56:00 AM 44.1506 -49.4003 251° West 416 479 40,000  Level FlightAware Transoceanic
Wed 09:57:00 AM 44.1132 -49.5505 251° West 416 479 40,000  Level FlightAware Transoceanic
Wed 09:58:00 AM 44.0757 -49.7006 251° West 416 479 40,000  Level FlightAware Transoceanic
Wed 09:59:00 AM 44.0379 -49.8504 251° West 416 479 40,000  Level FlightAware Transoceanic
Wed 10:00:00 AM 44.0000 -50.0000 263° West 416 479 40,000  Level FlightAware Transoceanic
Wed 10:00:41 AM 44.0667 -49.7333 251° West 389 448 40,000  Level New York Oceanic (ODAPS)
Wed 10:01:00 AM 43.9872 -50.1534 263° West 416 479 40,000  Level FlightAware Transoceanic
Wed 10:01:23 AM 44.0000 -50.0000 263° West 401 461 40,000  Level New York Oceanic (ODAPS)
Wed 10:02:00 AM 43.9742 -50.3067 263° West 416 479 40,000  Level FlightAware Transoceanic
Wed 10:03:00 AM 43.9610 -50.4600 263° West 416 479 40,000  Level FlightAware Transoceanic
Wed 10:04:00 AM 43.9475 -50.6131 263° West 416 479 40,000  Level FlightAware Transoceanic
Wed 10:05:00 AM 43.9339 -50.7663 263° West 416 479 40,000  Level FlightAware Transoceanic
Wed 10:06:00 AM 43.9201 -50.9193 263° West 416 479 40,000  Level FlightAware Transoceanic
Wed 10:06:25 AM 43.9500 -50.5000 263° West 397 457 40,000  Level New York Oceanic (ODAPS)
Wed 10:07:00 AM 43.9060 -51.0723 263° West 401 461 40,000  Level FlightAware Transoceanic
Wed 10:08:00 AM 43.8918 -51.2252 263° West 401 461 40,000  Level FlightAware Transoceanic
Wed 10:09:00 AM 43.8773 -51.3780 262° West 401 461 40,000  Level FlightAware Transoceanic
Wed 10:10:00 AM 43.8627 -51.5307 262° West 401 461 40,000  Level FlightAware Transoceanic
Wed 10:11:00 AM 43.8478 -51.6834 262° West 401 461 40,000  Level FlightAware Transoceanic
Wed 10:12:00 AM 43.8234 -51.8684 262° West 397 457 40,000  Level FlightAware Transoceanic
Wed 10:13:00 AM 43.8084 -52.0201 262° West 397 457 40,000  Level FlightAware Transoceanic
Wed 10:14:00 AM 43.7931 -52.1717 262° West 397 457 40,000  Level FlightAware Transoceanic
Wed 10:15:00 AM 43.7776 -52.3232 262° West 397 457 40,000  Level FlightAware Transoceanic
Wed 10:16:00 AM 43.7620 -52.4747 262° West 397 457 40,000  Level FlightAware Transoceanic
Wed 10:16:57 AM 43.7500 -52.6000 262° West 387 445 40,000  Level New York Oceanic (ODAPS)
Wed 10:17:00 AM 43.7461 -52.6260 262° West 397 457 40,000  Level FlightAware Transoceanic
Wed 10:18:00 AM 43.7300 -52.7773 262° West 397 457 40,000  Level FlightAware Transoceanic
Wed 10:19:00 AM 43.7138 -52.9285 261° West 397 457 40,000  Level FlightAware Transoceanic
Wed 10:20:00 AM 43.6973 -53.0796 261° West 397 457 40,000  Level FlightAware Transoceanic
Wed 10:21:00 AM 43.6806 -53.2307 261° West 397 457 40,000  Level FlightAware Transoceanic
Wed 10:22:00 AM 43.6638 -53.3816 261° West 397 457 40,000  Level FlightAware Transoceanic
Wed 10:23:00 AM 43.6530 -53.4857 261° West 387 445 40,000  Level FlightAware Transoceanic
Wed 10:24:00 AM 43.6362 -53.6331 261° West 387 445 40,000  Level FlightAware Transoceanic
Wed 10:25:00 AM 43.6191 -53.7803 261° West 387 445 40,000  Level FlightAware Transoceanic
Wed 10:26:00 AM 43.6019 -53.9275 261° West 387 445 40,000  Level FlightAware Transoceanic
Wed 10:27:00 AM 43.5845 -54.0746 261° West 387 445 40,000  Level FlightAware Transoceanic
Wed 10:28:00 AM 43.5669 -54.2216 261° West 387 445 40,000  Level FlightAware Transoceanic
Wed 10:29:00 AM 43.5491 -54.3685 260° West 387 445 40,000  Level FlightAware Transoceanic
Wed 10:30:00 AM 43.5312 -54.5154 260° West 387 445 40,000  Level FlightAware Transoceanic
Wed 10:30:46 AM 43.5167 -54.6500 260° West 384 442 40,000  Level New York Oceanic (ODAPS)
Wed 10:31:00 AM 43.5130 -54.6621 260° West 387 445 40,000  Level FlightAware Transoceanic
Wed 10:32:00 AM 43.4947 -54.8088 260° West 387 445 40,000  Level FlightAware Transoceanic
Wed 10:33:00 AM 43.4762 -54.9553 260° West 387 445 40,000  Level FlightAware Transoceanic
Wed 10:34:00 AM 43.4575 -55.1018 260° West 387 445 40,000  Level FlightAware Transoceanic
Wed 10:35:00 AM 43.4385 -55.2482 260° West 387 445 40,000  Level FlightAware Transoceanic
Wed 10:36:00 AM 43.4080 -55.4937 260° West 384 442 40,000  Level FlightAware Transoceanic
Wed 10:37:00 AM 43.3893 -55.6340 260° West 384 442 40,000  Level FlightAware Transoceanic
Wed 10:38:00 AM 43.3704 -55.7742 259° West 384 442 40,000  Level FlightAware Transoceanic
Wed 10:39:00 AM 43.3513 -55.9143 259° West 384 442 40,000  Level FlightAware Transoceanic
Wed 10:40:00 AM 43.3321 -56.0544 259° West 384 442 40,000  Level FlightAware Transoceanic
Wed 10:41:00 AM 43.3127 -56.1943 259° West 384 442 40,000  Level FlightAware Transoceanic
Wed 10:42:00 AM 43.2931 -56.3342 259° West 384 442 40,000  Level FlightAware Transoceanic
Wed 10:43:00 AM 43.2734 -56.4740 259° West 384 442 40,000  Level FlightAware Transoceanic
Wed 10:44:00 AM 43.2535 -56.6137 259° West 384 442 40,000  Level FlightAware Transoceanic
Wed 10:44:26 AM 43.2500 -56.6667 259° West 387 445 40,000  Level New York Oceanic (ODAPS)
Wed 10:45:00 AM 43.2334 -56.7533 259° West 384 442 40,000  Level FlightAware Transoceanic
Wed 10:46:00 AM 43.2132 -56.8928 259° West 384 442 40,000  Level FlightAware Transoceanic
Wed 10:47:00 AM 43.1927 -57.0322 259° West 384 442 40,000  Level FlightAware Transoceanic
Wed 10:48:00 AM 43.1721 -57.1715 258° West 384 442 40,000  Level FlightAware Transoceanic
Wed 10:49:00 AM 43.1514 -57.3107 258° West 384 442 40,000  Level FlightAware Transoceanic
Wed 10:50:00 AM 43.1292 -57.4675 258° West 387 445 40,000  Level FlightAware Transoceanic
Wed 10:51:00 AM 43.1085 -57.6006 258° West 387 445 40,000  Level FlightAware Transoceanic
Wed 10:52:00 AM 43.0877 -57.7337 258° West 387 445 40,000  Level FlightAware Transoceanic
Wed 10:53:00 AM 43.0667 -57.8667 268° West 387 445 40,000  Level FlightAware Transoceanic
Wed 10:53:21 AM 43.0500 -57.9000 268° West 380 437 40,000  Level Moncton Center
Wed 10:54:00 AM 43.0635 -58.0090 268° West 387 445 40,000  Level FlightAware Transoceanic
Wed 10:54:21 AM 43.0500 -58.0333 270° West 390 449 40,000  Level Moncton Center
Wed 10:55:00 AM 43.0601 -58.1514 268° West 387 445 40,000  Level FlightAware Transoceanic
Wed 10:55:21 AM 43.0333 -58.1833 261° West 380 437 40,000  Level Moncton Center
Wed 10:56:00 AM 43.0565 -58.2937 268° West 387 445 40,000  Level FlightAware Transoceanic
Wed 10:56:21 AM 43.0500 -58.3333 279° West 380 437 40,000  Level Moncton Center
Wed 10:57:00 AM 43.0528 -58.4360 268° West 387 445 40,000  Level FlightAware Transoceanic
Wed 10:57:21 AM 43.0333 -58.4833 261° West 380 437 40,000  Level Moncton Center
Wed 10:58:00 AM 43.0489 -58.5783 268° West 387 445 40,000  Level FlightAware Transoceanic
Wed 10:58:21 AM 43.0333 -58.6333 270° West 380 437 40,000  Level Moncton Center
Wed 10:59:21 AM 43.0333 -58.7667 270° West 380 437 40,000  Level Moncton Center
Wed 11:00:21 AM 43.0333 -58.9167 270° West 380 437 40,000  Level Moncton Center
Wed 11:01:21 AM 43.0167 -59.0667 261° West 390 449 40,000  Level Moncton Center
Wed 11:02:21 AM 43.0167 -59.2167 270° West 380 437 40,000  Level Moncton Center
Wed 11:03:21 AM 43.0167 -59.3500 270° West 380 437 40,000  Level Moncton Center
Wed 11:04:21 AM 43.0000 -59.4833 260° West 380 437 40,000  Level Moncton Center
Wed 11:05:21 AM 43.0000 -59.6500 270° West 390 449 40,000  Level Moncton Center
Wed 11:06:21 AM 42.9833 -59.8000 261° West 390 449 40,000  Level Moncton Center
Wed 11:07:21 AM 43.0000 -59.9500 279° West 380 437 40,000  Level Moncton Center
Wed 11:08:21 AM 42.9833 -60.0833 260° West 380 437 40,000  Level Moncton Center
Wed 11:09:21 AM 42.9667 -60.2500 262° West 380 437 40,000  Level Moncton Center
Wed 11:10:21 AM 42.9833 -60.3833 280° West 390 449 40,000  Level Moncton Center
Wed 11:11:21 AM 42.9667 -60.5167 260° West 390 449 40,000  Level Moncton Center
Wed 11:12:21 AM 42.9667 -60.6833 270° West 390 449 40,000  Level Moncton Center
Wed 11:13:21 AM 42.9667 -60.8167 270° West 380 437 40,000  Level Moncton Center
Wed 11:14:21 AM 42.9667 -60.9500 270° West 380 437 40,000  Level Moncton Center
Wed 11:15:21 AM 42.9500 -61.1167 262° West 390 449 40,000  Level Moncton Center
Wed 11:16:21 AM 42.9500 -61.2500 270° West 390 449 40,000  Level Moncton Center
Wed 11:17:21 AM 42.9500 -61.4000 270° West 390 449 40,000  Level Moncton Center
Wed 11:18:21 AM 42.9500 -61.5500 270° West 390 449 40,000  Level Moncton Center
Wed 11:19:21 AM 42.9333 -61.7000 261° West 380 437 40,000  Level Moncton Center
Wed 11:20:21 AM 42.9333 -61.8500 270° West 380 437 40,000  Level Moncton Center
Wed 11:21:21 AM 42.9167 -61.9833 260° West 380 437 40,000  Level Moncton Center
Wed 11:22:21 AM 42.9333 -62.1333 279° West 380 437 40,000  Level Moncton Center
Wed 11:23:21 AM 42.9167 -62.2833 261° West 390 449 40,000  Level Moncton Center
Wed 11:24:21 AM 42.9167 -62.4167 270° West 380 437 40,000  Level Moncton Center
Wed 11:25:21 AM 42.9000 -62.5667 261° West 390 449 40,000  Level Moncton Center
Wed 11:26:21 AM 42.8833 -62.7167 261° West 390 449 40,000  Level Moncton Center
Wed 11:27:21 AM 42.8833 -62.8667 270° West 390 449 40,000  Level Moncton Center
Wed 11:28:21 AM 42.8833 -63.0000 270° West 390 449 40,000  Level Moncton Center
Wed 11:29:21 AM 42.8833 -63.1667 270° West 390 449 40,000  Level Moncton Center
Wed 11:30:21 AM 42.8667 -63.3333 262° West 390 449 40,000  Level Moncton Center
Wed 11:31:21 AM 42.8667 -63.4667 270° West 390 449 40,000  Level Moncton Center
Wed 11:36:57 AM 42.8260 -64.2970 270° West 394 453 40,000  Level FlightAware ADS-B
Wed 11:38:07 AM 42.8160 -64.4750 266° West 391 450 40,000  Level FlightAware ADS-B
Wed 11:38:42 AM 42.8110 -64.5600 265° West 389 448 40,000  Level FlightAware ADS-B
Wed 11:39:32 AM 42.8030 -64.6830 265° West 388 447 40,000  Level FlightAware ADS-B
Wed 11:40:27 AM 42.7940 -64.8150 265° West 385 443 40,000  Level FlightAware ADS-B
Wed 11:41:07 AM 42.7890 -64.9020 266° West 383 441 40,000  Level FlightAware ADS-B
Wed 11:41:57 AM 42.7810 -65.0260 265° West 382 440 40,000  Level FlightAware ADS-B
Wed 11:42:42 AM 42.7730 -65.1380 264° West 378 435 40,000  Level FlightAware ADS-B
Wed 11:43:32 AM 42.7670 -65.2390 265° West 378 435 40,000  Level FlightAware ADS-B
Wed 11:44:12 AM 42.7590 -65.3500 264° West 379 436 40,000  Level FlightAware ADS-B
Wed 11:45:17 AM 42.7480 -65.5070 265° West 381 438 40,000  Level FlightAware ADS-B
Wed 11:45:57 AM 42.7410 -65.6040 264° West 383 441 40,000  Level FlightAware ADS-B
Wed 11:46:47 AM 42.7330 -65.7170 265° West 386 444 40,000  Level FlightAware ADS-B
Wed 11:47:42 AM 42.7230 -65.8560 264° West 388 447 40,000  Level FlightAware ADS-B
Wed 11:48:22 AM 42.7160 -65.9530 264° West 389 448 40,000  Level FlightAware ADS-B
Wed 11:49:07 AM 42.7080 -66.0650 264° West 388 447 40,000  Level FlightAware ADS-B
Wed 11:49:47 AM 42.7000 -66.1620 264° West 389 448 40,000  Level FlightAware ADS-B
Wed 11:50:32 AM 42.6920 -66.2730 264° West 389 448 40,000  Level FlightAware ADS-B
Wed 11:51:12 AM 42.6840 -66.3690 264° West 389 448 40,000  Level FlightAware ADS-B
Wed 11:51:52 AM 42.6770 -66.4680 265° West 389 448 40,000  Level FlightAware ADS-B
Wed 11:52:37 AM 42.6680 -66.5730 263° West 392 451 40,000  Level FlightAware ADS-B
Wed 11:53:17 AM 42.6610 -66.6710 264° West 393 452 40,000  Level FlightAware ADS-B
Wed 11:53:52 AM 42.6540 -66.7550 264° West 395 455 40,000  Level FlightAware ADS-B
Wed 11:54:37 AM 42.6450 -66.8670 264° West 394 453 40,000  Level FlightAware ADS-B
Wed 11:55:37 AM 42.6340 -67.0010 264° West 394 453 40,000  Level FlightAware ADS-B
Wed 11:56:17 AM 42.6270 -67.0850 264° West 394 453 40,000  Level FlightAware ADS-B
Wed 11:56:57 AM 42.6210 -67.1690 264° West 394 453 40,000  Level FlightAware ADS-B
Wed 11:57:37 AM 42.6140 -67.2530 264° West 394 453 40,000  Level FlightAware ADS-B
Wed 11:58:27 AM 42.6060 -67.3570 264° West 394 453 40,000  Level FlightAware ADS-B
Wed 11:58:47 AM 42.5590 -67.4740 241° Southwest 40,000  Level FlightAware ADS-B
Wed 11:59:07 AM 42.5510 -67.5240 258° West 398 458 40,000  Level FlightAware ADS-B
Wed 11:59:42 AM 42.5370 -67.6090 257° West 398 458 40,000  Level FlightAware ADS-B
Wed 12:00:32 PM 42.5180 -67.7290 258° West 397 457 40,000  Level FlightAware ADS-B
Wed 12:01:07 PM 42.5040 -67.8100 257° West 397 457 40,000  Level FlightAware ADS-B
Wed 12:01:57 PM 42.4840 -67.9370 258° West 394 453 40,000  Level FlightAware ADS-B
Wed 12:02:37 PM 42.4680 -68.0340 257° West 393 452 40,000  Level FlightAware ADS-B
Wed 12:03:22 PM 42.4510 -68.1350 257° West 393 452 40,000  Level FlightAware ADS-B
Wed 12:04:02 PM 42.4340 -68.2360 257° West 394 453 40,000  Level FlightAware ADS-B
Wed 12:04:42 PM 42.4170 -68.3360 257° West 394 453 40,000  Level FlightAware ADS-B
Wed 12:05:27 PM 42.4000 -68.4400 258° West 395 455 40,000  Level FlightAware ADS-B
Wed 12:06:07 PM 42.3830 -68.5390 257° West 395 455 40,000  Level FlightAware ADS-B
Wed 12:06:47 PM 42.3660 -68.6380 257° West 395 455 40,000  Level FlightAware ADS-B
Wed 12:07:32 PM 42.3480 -68.7410 257° West 395 455 40,000  Level FlightAware ADS-B
Wed 12:08:12 PM 42.3310 -68.8420 257° West 397 457 40,000  Level FlightAware ADS-B
Wed 12:08:57 PM 42.3120 -68.9490 257° West 397 457 40,000  Level FlightAware ADS-B
Wed 12:09:37 PM 42.2950 -69.0450 257° West 397 457 40,000  Level FlightAware ADS-B
Wed 12:10:22 PM 42.2760 -69.1570 257° West 398 458 40,000  Level FlightAware ADS-B
Wed 12:11:02 PM 42.2590 -69.2540 257° West 398 458 40,000  Level FlightAware ADS-B
Wed 12:11:42 PM 42.2410 -69.3510 256° West 397 457 40,000  Level FlightAware ADS-B
Wed 12:12:27 PM 42.2220 -69.4600 257° West 397 457 40,000  Level FlightAware ADS-B
Wed 12:13:07 PM 42.2040 -69.5570 256° West 397 457 40,000  Level FlightAware ADS-B
Wed 12:13:47 PM 42.1870 -69.6530 257° West 397 457 40,000  Level FlightAware ADS-B
Wed 12:14:32 PM 42.1670 -69.7610 256° West 400 460 40,000  Level FlightAware ADS-B
Wed 12:15:12 PM 42.1490 -69.8590 256° West 401 461 40,000  Level FlightAware ADS-B
Wed 12:15:57 PM 42.1300 -69.9670 257° West 402 463 40,000  Level FlightAware ADS-B
Wed 12:16:37 PM 42.1110 -70.0670 256° West 403 464 40,000  Level FlightAware ADS-B
Wed 12:17:22 PM 42.0910 -70.1740 256° West 407 468 40,000  Level FlightAware ADS-B
Wed 12:18:02 PM 42.0730 -70.2740 256° West 407 468 40,000  Level FlightAware ADS-B
Wed 12:18:47 PM 42.0480 -70.3810 253° West 410 472 40,000  Level FlightAware ADS-B
Wed 12:19:27 PM 42.0080 -70.4650 237° Southwest 417 480 40,000  Level FlightAware ADS-B
Wed 12:20:07 PM 41.9660 -70.5510 237° Southwest 417 480 40,000  Level FlightAware ADS-B
Wed 12:20:52 PM 41.9160 -70.6530 237° Southwest 416 479 40,000  Level FlightAware ADS-B
Wed 12:21:32 PM 41.8760 -70.7340 236° Southwest 416 479 40,000  Level FlightAware ADS-B
Wed 12:22:07 PM 41.8400 -70.8070 237° Southwest 416 479 40,000  Level FlightAware ADS-B
Wed 12:23:12 PM 41.7670 -70.9550 237° Southwest 415 478 40,000 -57 Level FlightAware ADS-B
Wed 12:23:52 PM 41.7280 -71.0360 237° Southwest 416 479 39,900 -1,040 Descending FlightAware ADS-B
Wed 12:24:27 PM 41.6870 -71.1170 236° Southwest 422 486 38,700 -2,118 Descending FlightAware ADS-B
Wed 12:25:17 PM 41.6340 -71.2230 236° Southwest 417 480 36,900 -2,133 Descending FlightAware ADS-B
Wed 12:25:57 PM 41.5910 -71.3110 237° Southwest 411 473 35,500 -2,471 Descending FlightAware ADS-B
Wed 12:26:42 PM 41.5450 -71.4030 236° Southwest 414 476 33,400 -2,824 Descending FlightAware ADS-B
Wed 12:27:22 PM 41.5050 -71.4820 236° Southwest 421 484 31,500 -2,880 Descending FlightAware ADS-B
Wed 12:27:57 PM 41.4620 -71.5680 236° Southwest 423 487 29,800 -2,400 Descending FlightAware ADS-B
Wed 12:28:47 PM 41.4110 -71.6690 236° Southwest 414 476 28,100 -2,118 Descending FlightAware ADS-B
Wed 12:29:22 PM 41.3690 -71.7520 236° Southwest 410 472 26,800 -2,047 Descending FlightAware ADS-B
Wed 12:30:12 PM 41.3210 -71.8470 236° Southwest 403 464 25,200 -1,867 Descending FlightAware ADS-B
Wed 12:30:52 PM 41.2680 -71.9300 230° Southwest 405 466 24,000 -1,050 Descending FlightAware ADS-B
Wed 12:31:32 PM 41.2170 -71.9940 223° Southwest 414 476 23,800 -2,000 Descending FlightAware ADS-B
Wed 12:32:07 PM 41.1600 -72.0570 220° Southwest 418 481 21,500 -1,725 Descending FlightAware ADS-B
Wed 12:32:52 PM 41.1010 -72.1230 220° Southwest 418 481 21,500 -1,705 Level FlightAware ADS-B
Wed 12:33:42 PM 41.0690 -72.2460 251° West 375 432 18,800 -2,625 Descending FlightAware ADS-B
Wed 12:34:12 PM 41.0530 -72.3100 252° West 369 425 18,000 -1,765 Descending FlightAware ADS-B
Wed 12:35:07 PM 41.0230 -72.4280 251° West 366 421 16,300 -1,691 Descending FlightAware ADS-B
Wed 12:36:02 PM 40.9960 -72.5370 252° West 358 412 14,900 -1,516 Descending FlightAware ADS-B
Wed 12:36:42 PM 40.9750 -72.6200 251° West 345 397 13,900 -1,500 Descending FlightAware ADS-B
Wed 12:37:22 PM 40.9550 -72.7010 252° West 334 384 12,900 -1,200 Descending FlightAware ADS-B
Wed 12:38:07 PM 40.9340 -72.7800 251° West 303 349 12,200 -1,000 Descending FlightAware ADS-B
Wed 12:38:22 PM 40.9220 -72.8050 238° Southwest 295 339 11,900 -720 Descending FlightAware ADS-B
Wed 12:38:32 PM 40.9130 -72.8150 220° Southwest 292 336 11,900 -982 Level FlightAware ADS-B
Wed 12:39:17 PM 40.8640 -72.8610 215° Southwest 279 321 11,000 -1,341 Descending FlightAware ADS-B
Wed 12:39:57 PM 40.8210 -72.9030 216° Southwest 278 320 10,000 -1,527 Descending FlightAware ADS-B
Wed 12:40:12 PM 40.8040 -72.9190 215° Southwest 280 322 9,600 -1,600 Descending FlightAware ADS-B
Wed 12:40:42 PM 40.7740 -72.9480 216° Southwest 279 321 8,800 -982 Descending FlightAware ADS-B
Wed 12:41:07 PM 40.7470 -72.9740 216° Southwest 278 320 8,700 -218 Descending FlightAware ADS-B
Wed 12:41:37 PM 40.7150 -73.0070 218° Southwest 280 322 8,600 -655 Descending FlightAware ADS-B
Wed 12:42:02 PM 40.6960 -73.0380 231° Southwest 270 311 8,100 -1,050 Descending FlightAware ADS-B
Wed 12:42:17 PM 40.6840 -73.0590 233° Southwest 270 311 7,900 -1,067 Descending FlightAware ADS-B
Wed 12:42:47 PM 40.6620 -73.0980 233° Southwest 267 307 7,300 -1,091 Descending FlightAware ADS-B
Wed 12:43:12 PM 40.6440 -73.1290 233° Southwest 255 293 6,900 -1,200 Descending FlightAware ADS-B
Wed 12:43:42 PM 40.6230 -73.1660 233° Southwest 255 293 6,200 -1,500 Descending FlightAware ADS-B
Wed 12:44:12 PM 40.6030 -73.2010 233° Southwest 267 307 5,400 -1,527 Descending FlightAware ADS-B
Wed 12:44:37 PM 40.5790 -73.2420 232° Southwest 265 305 4,800 -1,527 Descending FlightAware ADS-B
Wed 12:45:07 PM 40.5550 -73.2810 231° Southwest 270 311 4,000 -1,333 Descending FlightAware ADS-B
Wed 12:45:22 PM 40.5430 -73.3020 233° Southwest 264 304 3,800 -1,200 Descending FlightAware ADS-B
Wed 12:45:47 PM 40.5250 -73.3330 233° Southwest 262 302 3,200 -1,091 Descending FlightAware ADS-B
Wed 12:46:17 PM 40.5050 -73.3700 235° Southwest 258 297 2,800 -600 Descending FlightAware ADS-B
Wed 12:46:47 PM 40.4860 -73.4080 237° Southwest 256 295 2,600 -600 Descending FlightAware ADS-B
Wed 12:46:57 PM 40.4820 -73.4260 254° West 254 292 2,400 -1,200 Descending FlightAware ADS-B
Wed 12:47:27 PM 40.4730 -73.4680 254° West 256 295 1,800 -933 Descending FlightAware ADS-B
Wed 12:47:42 PM 40.4670 -73.4940 253° West 257 296 1,700 -150 Descending FlightAware ADS-B
Wed 12:48:07 PM 40.4600 -73.5270 254° West 258 297 1,700  Level FlightAware ADS-B
Wed 12:48:32 PM 40.4510 -73.5660 253° West 258 297 1,700  Level FlightAware ADS-B
Wed 12:49:07 PM 40.4390 -73.6220 254° West 258 297 1,700  Level FlightAware ADS-B
Wed 12:49:27 PM 40.4330 -73.6500 254° West 257 296 1,700  Level FlightAware ADS-B
Wed 12:50:02 PM 40.4220 -73.7010 254° West 231 266 1,700  Level FlightAware ADS-B
Wed 12:50:27 PM 40.4150 -73.7290 252° West 220 253 1,700  Level FlightAware ADS-B
Wed 12:50:57 PM 40.4060 -73.7710 254° West 207 238 1,700  Level FlightAware ADS-B
Wed 12:51:27 PM 40.3980 -73.8040 252° West 186 214 1,700  Level FlightAware ADS-B
Wed 12:51:37 PM 40.3980 -73.8150 270° West 180 207 1,700  Level FlightAware ADS-B
Wed 12:51:52 PM 40.4020 -73.8280 292° West 176 203 1,700  Level FlightAware ADS-B
Wed 12:52:22 PM 40.4160 -73.8560 303° West 179 206 1,700  Level FlightAware ADS-B
Wed 12:52:47 PM 40.4280 -73.8780 306° West 173 199 1,700  Level FlightAware ADS-B
Wed 12:53:02 PM 40.4390 -73.8880 325° Northwest 172 198 1,700  Level FlightAware ADS-B
Wed 12:53:32 PM 40.4620 -73.8900 356° North 174 200 1,700  Level FlightAware ADS-B
Wed 12:54:02 PM 40.4850 -73.8790 20° North 179 206 1,700  Level FlightAware ADS-B
Wed 12:54:12 PM 40.4910 -73.8750 27° Northeast 177 204 1,700  Level FlightAware ADS-B
Wed 12:54:42 PM 40.5130 -73.8570 32° Northeast 180 207 1,700  Level FlightAware ADS-B
Wed 12:55:07 PM 40.5320 -73.8430 29° Northeast 179 206 1,700 -327 Level FlightAware ADS-B
Wed 12:55:37 PM 40.5540 -73.8260 30° Northeast 175 201 1,400 -700 Descending FlightAware ADS-B
Wed 12:56:07 PM 40.5740 -73.8110 30° Northeast 153 176 1,000 -873 Descending FlightAware ADS-B
Wed 12:56:32 PM 40.5880 -73.8000 31° Northeast 135 155 600 -764 Descending FlightAware ADS-B
Wed 12:57:02 PM 40.6030 -73.7880 31° Northeast 128 147 300 -600 Descending FlightAware ADS-B
Wed 12:57:27 PM 40.6160 -73.7780 30° Northeast 128 147 -720 Descending FlightAware ADS-B

Login

Don't have an account? Register now (free) for customized features, flight alerts, and more!